Time;durP1;ratioP1;P1;durP2;ratioP2;P2;SDS_P1;SDS_P2;PMS_P1;PMS_P2;Temp;Humidity;BMP_temperature;BMP_pressure;BME280_temperature;BME280_humidity;BME280_pressure;Samples;Min_cycle;Max_cycle;Signal;HPM_P1;HPM_P2
2023/06/15 00:00:55;;;;;;;4.93;1.98;;;;;;;;;;5024072;28;20124;-75
2023/06/15 00:03:21;;;;;;;4.20;2.17;;;;;;;;;;5018607;28;20033;-76
2023/06/15 00:05:47;;;;;;;12.55;2.30;;;;;;;;;;5020416;28;20112;-75
2023/06/15 00:08:13;;;;;;;5.55;2.47;;;;;;;;;;5022534;28;20614;-75
2023/06/15 00:10:39;;;;;;;3.53;2.60;;;;;;;;;;5015163;28;20036;-75
2023/06/15 00:13:05;;;;;;;9.50;3.00;;;;;;;;;;5019496;28;20056;-75
2023/06/15 00:15:31;;;;;;;5.50;2.03;;;;;;;;;;5019621;28;20036;-75
2023/06/15 00:17:57;;;;;;;7.70;2.30;;;;;;;;;;5016879;28;20099;-75
2023/06/15 00:20:28;;;;;;;6.05;2.10;;;;;;;;;;5021064;28;20041;-75
2023/06/15 00:22:55;;;;;;;5.68;1.88;;;;;;;;;;5024839;28;20034;-75
2023/06/15 00:25:21;;;;;;;6.20;2.15;;;;;;;;;;5024466;28;20033;-75
2023/06/15 00:27:47;;;;;;;5.72;2.53;;;;;;;;;;5011885;28;20127;-75
2023/06/15 00:30:14;;;;;;;5.13;2.25;;;;;;;;;;5020664;28;20104;-75
2023/06/15 00:32:40;;;;;;;3.75;2.15;;;;;;;;;;5021679;28;20029;-75
2023/06/15 00:35:06;;;;;;;5.32;2.25;;;;;;;;;;5018037;28;20033;-75
2023/06/15 00:37:32;;;;;;;5.80;2.28;;;;;;;;;;5017545;28;20467;-75
2023/06/15 00:39:58;;;;;;;5.30;2.80;;;;;;;;;;5019626;28;20034;-75
2023/06/15 00:42:24;;;;;;;3.47;2.65;;;;;;;;;;5017016;28;20136;-75
2023/06/15 00:44:50;;;;;;;13.90;3.10;;;;;;;;;;5015436;28;20080;-75
2023/06/15 00:47:18;;;;;;;6.30;2.92;;;;;;;;;;5015876;28;20087;-75
2023/06/15 00:49:44;;;;;;;4.15;2.05;;;;;;;;;;5015695;28;20026;-75
2023/06/15 00:52:11;;;;;;;6.63;3.00;;;;;;;;;;5019036;28;20029;-75
2023/06/15 00:54:40;;;;;;;4.50;2.90;;;;;;;;;;5015930;28;20038;-75
2023/06/15 00:57:07;;;;;;;6.05;2.63;;;;;;;;;;5018616;28;20028;-75
2023/06/15 00:59:34;;;;;;;9.75;2.70;;;;;;;;;;5020086;28;20041;-74
2023/06/15 01:02:00;;;;;;;3.72;2.40;;;;;;;;;;5021545;28;20034;-74
2023/06/15 01:04:26;;;;;;;9.05;2.63;;;;;;;;;;5022316;28;20133;-75
2023/06/15 01:06:56;;;;;;;6.50;2.58;;;;;;;;;;5016651;28;20536;-75
2023/06/15 01:09:23;;;;;;;8.30;2.60;;;;;;;;;;5031540;28;20475;-75
2023/06/15 01:11:52;;;;;;;7.57;2.85;;;;;;;;;;5014659;28;20091;-75
2023/06/15 01:14:19;;;;;;;6.28;2.60;;;;;;;;;;5014935;28;20030;-75
2023/06/15 01:16:52;;;;;;;5.03;3.08;;;;;;;;;;5022120;28;20052;-74
2023/06/15 01:19:31;;;;;;;7.97;3.40;;;;;;;;;;5017835;28;20868;-75
2023/06/15 01:22:07;;;;;;;4.88;2.50;;;;;;;;;;5025023;28;20033;-74
2023/06/15 01:24:37;;;;;;;5.82;3.05;;;;;;;;;;5017035;28;20041;-74
2023/06/15 01:27:04;;;;;;;6.63;2.72;;;;;;;;;;5021106;28;20675;-74
2023/06/15 01:29:31;;;;;;;4.20;2.55;;;;;;;;;;5023041;28;20026;-75
2023/06/15 01:31:57;;;;;;;7.35;2.72;;;;;;;;;;5019582;28;20080;-74
2023/06/15 01:34:23;;;;;;;7.05;2.67;;;;;;;;;;5025236;28;20475;-74
2023/06/15 01:36:50;;;;;;;8.05;2.60;;;;;;;;;;5025026;28;20044;-74
2023/06/15 01:39:16;;;;;;;6.95;2.75;;;;;;;;;;5014681;28;20065;-74
2023/06/15 01:41:43;;;;;;;5.25;2.63;;;;;;;;;;5020858;28;20535;-74
2023/06/15 01:44:09;;;;;;;11.55;3.20;;;;;;;;;;5020056;28;20140;-75
2023/06/15 01:46:35;;;;;;;6.03;3.65;;;;;;;;;;5020198;28;20038;-75
2023/06/15 01:49:02;;;;;;;7.97;3.17;;;;;;;;;;5023550;28;20163;-75
2023/06/15 01:51:29;;;;;;;6.60;3.08;;;;;;;;;;5022175;28;20030;-74
2023/06/15 01:53:55;;;;;;;8.20;2.80;;;;;;;;;;5024462;28;20182;-75
2023/06/15 01:56:21;;;;;;;5.45;2.80;;;;;;;;;;5018487;28;20025;-75
2023/06/15 01:58:47;;;;;;;7.03;2.92;;;;;;;;;;5019242;28;20041;-74
2023/06/15 02:01:13;;;;;;;9.27;2.85;;;;;;;;;;5019957;28;20037;-75
2023/06/15 02:03:39;;;;;;;6.20;3.17;;;;;;;;;;5021904;28;20040;-75
2023/06/15 02:06:05;;;;;;;9.25;3.00;;;;;;;;;;5021852;28;20040;-75
2023/06/15 02:08:31;;;;;;;8.25;2.92;;;;;;;;;;5017389;28;20391;-75
2023/06/15 02:10:59;;;;;;;8.38;3.20;;;;;;;;;;5016515;28;20466;-75
2023/06/15 02:13:25;;;;;;;5.85;3.10;;;;;;;;;;5021281;28;20057;-75
2023/06/15 02:15:51;;;;;;;11.00;4.03;;;;;;;;;;5018118;28;20034;-74
2023/06/15 02:18:17;;;;;;;7.63;3.60;;;;;;;;;;5021147;28;20053;-74
2023/06/15 02:20:43;;;;;;;7.50;3.40;;;;;;;;;;5024394;28;20112;-74
2023/06/15 02:23:10;;;;;;;4.32;3.08;;;;;;;;;;5015815;28;20080;-74
2023/06/15 02:25:36;;;;;;;8.10;2.80;;;;;;;;;;5018863;28;20121;-74
2023/06/15 02:28:03;;;;;;;5.70;3.35;;;;;;;;;;5018486;28;20034;-74
2023/06/15 02:30:29;;;;;;;7.07;2.65;;;;;;;;;;5021895;28;20029;-74
2023/06/15 02:32:59;;;;;;;8.57;3.17;;;;;;;;;;5019751;28;20406;-74
2023/06/15 02:35:26;;;;;;;9.52;3.67;;;;;;;;;;5020172;28;20056;-74
2023/06/15 02:37:52;;;;;;;8.40;3.33;;;;;;;;;;5024454;28;20045;-74
2023/06/15 02:40:18;;;;;;;4.28;2.92;;;;;;;;;;5020407;28;20087;-74
2023/06/15 02:42:44;;;;;;;7.93;2.92;;;;;;;;;;5019800;28;20075;-74
2023/06/15 02:45:10;;;;;;;6.15;3.28;;;;;;;;;;5020136;28;20064;-73
2023/06/15 02:47:36;;;;;;;7.55;3.40;;;;;;;;;;5032063;28;20060;-73
2023/06/15 02:50:03;;;;;;;7.75;3.85;;;;;;;;;;5026480;28;20022;-75
2023/06/15 02:52:30;;;;;;;5.63;3.13;;;;;;;;;;5026025;28;20475;-76
2023/06/15 02:54:59;;;;;;;13.68;3.95;;;;;;;;;;5016234;28;20388;-75
2023/06/15 02:57:26;;;;;;;7.15;4.78;;;;;;;;;;5014245;28;20096;-72
2023/06/15 02:59:52;;;;;;;14.60;6.43;;;;;;;;;;5015435;28;20025;-71
2023/06/15 03:02:20;;;;;;;18.48;11.20;;;;;;;;;;5029590;28;20031;-72
2023/06/15 03:04:47;;;;;;;13.57;6.28;;;;;;;;;;5021346;28;20541;-71
2023/06/15 03:07:20;;;;;;;11.27;4.35;;;;;;;;;;5009675;28;20368;-74
2023/06/15 03:09:52;;;;;;;7.63;3.40;;;;;;;;;;5024956;28;20021;-75
2023/06/15 03:12:19;;;;;;;14.10;4.22;;;;;;;;;;5029280;28;20049;-76
2023/06/15 03:14:49;;;;;;;5.93;3.35;;;;;;;;;;5029060;28;20068;-75
2023/06/15 03:17:15;;;;;;;6.75;3.53;;;;;;;;;;5010753;28;21601;-76
2023/06/15 03:19:43;;;;;;;11.43;3.70;;;;;;;;;;5029762;28;20125;-76
2023/06/15 03:22:09;;;;;;;4.85;3.35;;;;;;;;;;5030030;28;20032;-75
2023/06/15 03:24:36;;;;;;;5.88;3.30;;;;;;;;;;5031765;28;20045;-74
2023/06/15 03:27:03;;;;;;;7.60;3.60;;;;;;;;;;5016262;28;20071;-74
2023/06/15 03:29:31;;;;;;;6.57;3.33;;;;;;;;;;5009429;28;20410;-75
2023/06/15 03:31:57;;;;;;;18.95;10.15;;;;;;;;;;5009800;28;20091;-72
2023/06/15 03:34:25;;;;;;;12.27;7.95;;;;;;;;;;5010284;28;20021;-72
2023/06/15 03:36:51;;;;;;;12.20;6.22;;;;;;;;;;5011774;28;20157;-73
2023/06/15 03:39:18;;;;;;;9.05;3.88;;;;;;;;;;5010825;28;20041;-74
2023/06/15 03:41:44;;;;;;;6.07;3.63;;;;;;;;;;5017668;28;20320;-74
2023/06/15 03:44:11;;;;;;;7.65;3.92;;;;;;;;;;5021426;28;20041;-75
2023/06/15 03:46:37;;;;;;;9.95;4.18;;;;;;;;;;5025614;28;20029;-73
2023/06/15 03:49:03;;;;;;;6.82;3.85;;;;;;;;;;5021134;28;20029;-74
2023/06/15 03:51:29;;;;;;;7.68;3.70;;;;;;;;;;5027271;28;20025;-74
2023/06/15 03:53:55;;;;;;;6.43;3.55;;;;;;;;;;5028505;28;20051;-75
2023/06/15 03:56:21;;;;;;;6.22;3.70;;;;;;;;;;5027457;28;20042;-74
2023/06/15 03:58:47;;;;;;;9.68;4.28;;;;;;;;;;5023431;28;20021;-75
2023/06/15 04:01:13;;;;;;;8.55;4.00;;;;;;;;;;5024203;28;20029;-73
2023/06/15 04:03:40;;;;;;;32.85;20.02;;;;;;;;;;5023581;28;20046;-72
2023/06/15 04:06:06;;;;;;;13.13;8.80;;;;;;;;;;5030586;28;20021;-73
2023/06/15 04:08:32;;;;;;;10.85;6.85;;;;;;;;;;5019465;28;20055;-75
2023/06/15 04:10:58;;;;;;;6.93;4.20;;;;;;;;;;5010633;28;20040;-75
2023/06/15 04:13:25;;;;;;;8.90;3.45;;;;;;;;;;5013253;28;20133;-76
2023/06/15 04:15:52;;;;;;;10.50;3.80;;;;;;;;;;5020404;28;20034;-76
2023/06/15 04:18:18;;;;;;;12.70;4.43;;;;;;;;;;5023595;28;20045;-76
2023/06/15 04:20:44;;;;;;;9.95;4.07;;;;;;;;;;5009857;28;20022;-76
2023/06/15 04:23:11;;;;;;;14.98;4.32;;;;;;;;;;5024310;28;20049;-76
2023/06/15 04:25:40;;;;;;;9.52;3.28;;;;;;;;;;5030444;28;20341;-76
2023/06/15 04:28:10;;;;;;;8.88;3.40;;;;;;;;;;5021729;28;20383;-76
2023/06/15 04:30:37;;;;;;;6.82;3.45;;;;;;;;;;5018632;28;20018;-76
2023/06/15 04:33:04;;;;;;;13.95;4.55;;;;;;;;;;5021586;28;20045;-76
2023/06/15 04:35:31;;;;;;;9.30;3.72;;;;;;;;;;5021386;28;20055;-76
2023/06/15 04:38:04;;;;;;;6.03;3.67;;;;;;;;;;5022871;28;20033;-75
2023/06/15 04:40:30;;;;;;;6.32;3.28;;;;;;;;;;5024116;28;20068;-75
2023/06/15 04:42:58;;;;;;;6.53;3.70;;;;;;;;;;5022027;28;20132;-75
2023/06/15 04:45:24;;;;;;;5.30;3.33;;;;;;;;;;5021168;28;20053;-75
2023/06/15 04:47:50;;;;;;;9.02;3.33;;;;;;;;;;5023026;28;20137;-75
2023/06/15 04:50:16;;;;;;;10.32;3.72;;;;;;;;;;5018797;28;20040;-76
2023/06/15 04:52:43;;;;;;;8.32;3.50;;;;;;;;;;5022194;28;20041;-75
2023/06/15 04:55:10;;;;;;;7.82;4.07;;;;;;;;;;5017386;28;20379;-76
2023/06/15 04:57:36;;;;;;;7.85;3.47;;;;;;;;;;5025078;28;20051;-75
2023/06/15 05:00:05;;;;;;;6.95;3.17;;;;;;;;;;5022028;28;20044;-73
2023/06/15 05:02:33;;;;;;;7.50;4.07;;;;;;;;;;5024955;28;20025;-74
2023/06/15 05:04:59;;;;;;;8.18;4.45;;;;;;;;;;5023951;28;20467;-76
2023/06/15 05:07:25;;;;;;;4.70;3.25;;;;;;;;;;5027182;28;20021;-76
2023/06/15 05:09:51;;;;;;;8.25;3.58;;;;;;;;;;5026728;28;20056;-76
2023/06/15 05:12:17;;;;;;;7.28;3.53;;;;;;;;;;5027598;28;20037;-76
2023/06/15 05:14:43;;;;;;;6.80;3.45;;;;;;;;;;5023286;28;20036;-76
2023/06/15 05:17:10;;;;;;;7.50;3.92;;;;;;;;;;5026181;28;20053;-76
2023/06/15 05:19:36;;;;;;;6.90;4.38;;;;;;;;;;5041197;28;20037;-76
2023/06/15 05:22:02;;;;;;;14.93;3.63;;;;;;;;;;5027798;28;20112;-75
2023/06/15 05:24:29;;;;;;;8.20;3.63;;;;;;;;;;5027804;28;20231;-76
2023/06/15 05:26:56;;;;;;;8.32;3.33;;;;;;;;;;5026430;28;20042;-75
2023/06/15 05:29:22;;;;;;;5.40;3.10;;;;;;;;;;5025964;28;20028;-76
2023/06/15 05:31:48;;;;;;;20.88;3.28;;;;;;;;;;5025673;28;20033;-75
2023/06/15 05:34:14;;;;;;;6.32;3.67;;;;;;;;;;5025321;28;20055;-76
2023/06/15 05:36:41;;;;;;;18.60;3.90;;;;;;;;;;5025921;28;20037;-75
2023/06/15 05:39:07;;;;;;;9.90;3.40;;;;;;;;;;5042309;28;20048;-75
2023/06/15 05:41:33;;;;;;;5.45;3.22;;;;;;;;;;5019001;28;20029;-74
2023/06/15 05:44:00;;;;;;;14.68;3.38;;;;;;;;;;5023509;28;20111;-74
2023/06/15 05:46:26;;;;;;;11.75;3.50;;;;;;;;;;5024488;28;20026;-74
2023/06/15 05:48:53;;;;;;;6.38;3.85;;;;;;;;;;5022499;28;20497;-75
2023/06/15 05:51:19;;;;;;;9.98;3.10;;;;;;;;;;5022531;28;20116;-77
2023/06/15 05:53:45;;;;;;;9.98;4.15;;;;;;;;;;5028196;28;20037;-74
2023/06/15 05:56:11;;;;;;;7.90;3.28;;;;;;;;;;5022893;28;20034;-77
2023/06/15 05:58:38;;;;;;;6.85;2.95;;;;;;;;;;5025657;28;20036;-76
2023/06/15 06:01:04;;;;;;;31.40;16.02;;;;;;;;;;5025019;28;20026;-78
2023/06/15 06:03:31;;;;;;;13.18;5.30;;;;;;;;;;5018140;28;20033;-75
2023/06/15 06:05:57;;;;;;;10.20;4.85;;;;;;;;;;5022468;28;20033;-76
2023/06/15 06:08:23;;;;;;;6.40;3.25;;;;;;;;;;5019964;28;20241;-74
2023/06/15 06:10:49;;;;;;;10.10;4.10;;;;;;;;;;5024769;28;20105;-78
2023/06/15 06:13:15;;;;;;;5.00;4.10;;;;;;;;;;5023596;28;20036;-77
2023/06/15 06:15:42;;;;;;;8.40;3.78;;;;;;;;;;5022271;28;20037;-77
2023/06/15 06:18:08;;;;;;;6.85;3.40;;;;;;;;;;5020629;28;20060;-72
2023/06/15 06:20:35;;;;;;;10.05;3.08;;;;;;;;;;5020592;28;20037;-72
2023/06/15 06:23:03;;;;;;;5.65;3.00;;;;;;;;;;5021455;28;20350;-73
2023/06/15 06:25:29;;;;;;;17.67;11.85;;;;;;;;;;5022076;28;20032;-72
2023/06/15 06:27:55;;;;;;;31.83;22.83;;;;;;;;;;5023312;28;20037;-72
2023/06/15 06:30:21;;;;;;;10.63;4.78;;;;;;;;;;5023867;28;20460;-72
2023/06/15 06:32:47;;;;;;;7.22;3.70;;;;;;;;;;5024216;28;20463;-74
2023/06/15 06:35:15;;;;;;;7.25;2.97;;;;;;;;;;5007463;28;20121;-74
2023/06/15 06:37:41;;;;;;;5.75;3.15;;;;;;;;;;5021441;28;20363;-72
2023/06/15 06:40:07;;;;;;;9.18;2.70;;;;;;;;;;5020141;28;20103;-73
2023/06/15 06:42:34;;;;;;;8.35;3.42;;;;;;;;;;5022011;28;20041;-72
2023/06/15 06:45:00;;;;;;;6.10;2.60;;;;;;;;;;5021156;28;20357;-73
2023/06/15 06:47:26;;;;;;;8.85;2.67;;;;;;;;;;5022271;28;20037;-73
2023/06/15 06:49:52;;;;;;;6.18;2.80;;;;;;;;;;5022017;28;20490;-73
2023/06/15 06:52:18;;;;;;;5.65;2.60;;;;;;;;;;5021695;28;21899;-74
2023/06/15 06:54:47;;;;;;;16.88;2.90;;;;;;;;;;5021280;28;20091;-73
2023/06/15 06:57:13;;;;;;;4.90;2.75;;;26.90;99.90;;;;;;5021007;28;20018;-75
2023/06/15 06:59:38;;;;;;;5.88;2.35;;;27.10;99.90;;;;;;5020617;28;20033;-73
2023/06/15 07:02:05;;;;;;;4.05;2.53;;;27.20;99.90;;;;;;5022142;28;20071;-71
2023/06/15 07:04:30;;;;;;;9.48;6.05;;;27.40;99.90;;;;;;5020294;28;20435;-72
2023/06/15 07:06:56;;;;;;;9.90;6.03;;;27.70;99.90;;;;;;5021465;28;20048;-70
2023/06/15 07:09:22;;;;;;;7.68;3.38;;;27.90;99.90;;;;;;5020745;28;20553;-71
2023/06/15 07:11:49;;;;;;;7.00;2.63;;;28.20;99.90;;;;;;5020100;28;20033;-71
2023/06/15 07:14:15;;;;;;;4.50;2.55;;;28.90;99.90;;;;;;5022067;28;20041;-72
2023/06/15 07:16:40;;;;;;;9.68;2.28;;;29.10;99.90;;;;;;5018648;28;20117;-72
2023/06/15 07:19:06;;;;;;;5.75;2.30;;;29.40;99.90;;;;;;5020087;28;20060;-73
2023/06/15 07:21:32;;;;;;;9.00;3.67;;;29.50;99.90;;;;;;5026764;28;20033;-73
2023/06/15 07:23:58;;;;;;;13.00;5.95;;;;;;;;;;5030027;28;20067;-72
2023/06/15 07:26:23;;;;;;;17.58;12.48;;;30.00;99.90;;;;;;5029118;28;20030;-72
2023/06/15 07:28:51;;;;;;;8.23;2.63;;;;;;;;;;5024831;28;20369;-73
2023/06/15 07:31:17;;;;;;;8.25;2.15;;;;;;;;;;5023609;28;20037;-73
2023/06/15 07:33:43;;;;;;;6.93;3.00;;;;;;;;;;5019167;28;20463;-73
2023/06/15 07:36:09;;;;;;;5.13;1.77;;;;;;;;;;5002392;28;20064;-74
2023/06/15 07:38:37;;;;;;;7.10;2.50;;;;;;;;;;5020805;28;20112;-74
2023/06/15 07:41:03;;;;;;;3.60;2.65;;;;;;;;;;5021440;28;20030;-73
2023/06/15 07:43:30;;;;;;;17.08;2.90;;;;;;;;;;5019721;28;20041;-74
2023/06/15 07:45:56;;;;;;;9.23;2.30;;;;;;;;;;5014692;28;20053;-75
2023/06/15 07:48:22;;;;;;;2.33;2.00;;;;;;;;;;5018758;28;20022;-75
2023/06/15 07:50:48;;;;;;;5.40;2.05;;;;;;;;;;5020856;28;20064;-75
2023/06/15 07:53:15;;;;;;;4.95;2.33;;;;;;;;;;5023866;28;20091;-76
2023/06/15 07:55:41;;;;;;;7.55;2.00;;;;;;;;;;5020619;28;20026;-76
2023/06/15 07:58:07;;;;;;;6.65;2.20;;;;;;;;;;5020378;28;20021;-76
2023/06/15 08:00:33;;;;;;;6.78;1.75;;;31.30;99.90;;;;;;5022407;28;20041;-76
2023/06/15 08:02:59;;;;;;;3.08;1.77;;;;;;;;;;5022267;28;20078;-76
2023/06/15 08:05:25;;;;;;;5.68;1.90;;;;;;;;;;5020153;28;20576;-76
2023/06/15 08:07:51;;;;;;;10.43;2.78;;;31.40;99.90;;;;;;5017631;28;20041;-79
2023/06/15 08:10:18;;;;;;;4.10;1.50;;;31.60;99.90;;;;;;5019230;28;20041;-79
2023/06/15 08:12:43;;;;;;;7.18;1.60;;;31.50;99.90;;;;;;5021974;28;20029;-76
2023/06/15 08:15:10;;;;;;;5.97;1.70;;;31.60;99.90;;;;;;5018165;28;20052;-76
2023/06/15 08:17:35;;;;;;;2.55;1.58;;;32.10;99.90;;;;;;5017749;28;20053;-77
2023/06/15 08:20:05;;;;;;;3.10;1.60;;;32.10;99.90;;;;;;5018528;28;20107;-77
2023/06/15 08:22:31;;;;;;;4.05;1.60;;;;;;;;;;5018732;28;20046;-77
2023/06/15 08:24:57;;;;;;;9.77;1.70;;;32.30;99.90;;;;;;5019887;28;20365;-79
2023/06/15 08:27:23;;;;;;;12.20;4.82;;;;;;;;;;5020970;28;20219;-75
2023/06/15 08:29:49;;;;;;;7.60;2.28;;;;;;;;;;5022279;28;20034;-74
2023/06/15 08:32:15;;;;;;;5.28;1.80;;;;;;;;;;5022515;28;20064;-76
2023/06/15 08:34:42;;;;;;;3.20;1.65;;;;;;;;;;5018851;28;20551;-76
2023/06/15 08:37:09;;;;;;;5.43;1.80;;;;;;;;;;5020792;28;20045;-76
2023/06/15 08:39:35;;;;;;;4.28;1.90;;;;;;;;;;5021165;28;20030;-77
2023/06/15 08:42:02;;;;;;;7.22;1.80;;;;;;;;;;5022645;28;20034;-76
2023/06/15 08:44:29;;;;;;;6.82;2.10;;;;;;;;;;5021538;28;20042;-78
2023/06/15 08:46:56;;;;;;;6.30;1.67;;;;;;;;;;5020298;28;20064;-79
2023/06/15 08:49:25;;;;;;;13.48;1.90;;;;;;;;;;5020048;28;20045;-75
2023/06/15 08:51:52;;;;;;;6.78;1.63;;;;;;;;;;5023512;28;20030;-76
2023/06/15 08:54:20;;;;;;;6.10;1.63;;;;;;;;;;5019663;28;20090;-77
2023/06/15 08:56:46;;;;;;;6.07;1.60;;;;;;;;;;5019541;28;20038;-77
2023/06/15 08:59:12;;;;;;;7.28;1.92;;;;;;;;;;5021456;28;20037;-76
2023/06/15 09:01:40;;;;;;;3.28;1.65;;;;;;;;;;5016322;28;20412;-75
2023/06/15 09:04:06;;;;;;;2.63;1.67;;;;;;;;;;5019137;28;20041;-75
2023/06/15 09:06:32;;;;;;;5.45;1.83;;;;;;;;;;5025649;28;20127;-75
2023/06/15 09:08:59;;;;;;;4.78;1.60;;;;;;;;;;5028244;28;20033;-75
2023/06/15 09:11:25;;;;;;;4.72;1.77;;;;;;;;;;5021826;28;20025;-75
2023/06/15 09:13:51;;;;;;;7.20;1.80;;;;;;;;;;5023878;28;20042;-74
2023/06/15 09:16:17;;;;;;;5.60;2.63;;;;;;;;;;5023857;28;20087;-74
2023/06/15 09:18:47;;;;;;;5.93;2.42;;;;;;;;;;5017243;28;20058;-74
2023/06/15 09:21:14;;;;;;;9.13;1.10;;;;;;;;;;5017279;28;20052;-75
2023/06/15 09:23:44;;;;;;;1.70;1.20;;;;;;;;;;5018857;28;20030;-74
2023/06/15 09:26:32;;;;;;;7.53;2.08;;;;;;;;;;5017739;28;20037;-75
2023/06/15 09:28:59;;;;;;;9.32;6.88;;;;;;;;;;5017143;28;20508;-74
2023/06/15 09:31:34;;;;;;;3.53;2.25;;;;;;;;;;5020257;28;20060;-74
2023/06/15 09:34:02;;;;;;;5.63;2.63;;;;;;;;;;5020801;28;20033;-74
2023/06/15 09:36:33;;;;;;;8.50;1.90;;;;;;;;;;5018216;28;20057;-75
2023/06/15 09:38:59;;;;;;;5.93;1.60;;;;;;;;;;5019815;28;20114;-76
2023/06/15 09:41:25;;;;;;;3.42;1.42;;;;;;;;;;5017615;28;20124;-77
2023/06/15 09:43:52;;;;;;;9.52;1.63;;;;;;;;;;5017470;28;20041;-77
2023/06/15 09:46:21;;;;;;;9.90;1.80;;;;;;;;;;5020136;28;20040;-77
2023/06/15 09:48:48;;;;;;;3.03;1.58;;;;;;;;;;5020964;28;20068;-75
2023/06/15 09:51:15;;;;;;;4.97;1.73;;;;;;;;;;5023513;28;20030;-76
2023/06/15 09:53:42;;;;;;;7.18;2.35;;;;;;;;;;5020478;28;20029;-75
2023/06/15 09:56:09;;;;;;;5.90;1.48;;;;;;;;;;5022444;28;20088;-75
2023/06/15 09:58:35;;;;;;;8.85;1.80;;;;;;;;;;5019554;28;20018;-75
2023/06/15 10:01:04;;;;;;;29.70;3.13;;;;;;;;;;5021754;28;20479;-76
2023/06/15 10:03:31;;;;;;;15.93;1.70;;;;;;;;;;5023653;28;20041;-74
2023/06/15 10:05:59;;;;;;;2.97;1.50;;;;;;;;;;5023474;28;20038;-75
2023/06/15 10:08:27;;;;;;;7.03;1.90;;;;;;;;;;5021820;28;20076;-76
2023/06/15 10:10:55;;;;;;;2.60;1.60;;;;;;;;;;5020876;28;20474;-75
2023/06/15 10:13:23;;;;;;;7.07;4.93;;;;;;;;;;5014697;28;20073;-76
2023/06/15 10:15:52;;;;;;;6.00;2.40;;;;;;;;;;5022049;28;20026;-75
2023/06/15 10:18:22;;;;;;;3.78;1.70;;;;;;;;;;5021085;28;20395;-75
2023/06/15 10:20:49;;;;;;;5.55;1.75;;;;;;;;;;5023708;28;20058;-76
2023/06/15 10:23:17;;;;;;;5.68;1.70;;;;;;;;;;5019528;28;20037;-76
2023/06/15 10:25:43;;;;;;;5.90;1.40;;;;;;;;;;5020810;28;20037;-76
2023/06/15 10:28:11;;;;;;;8.70;1.70;;;;;;;;;;5021206;28;20038;-77
2023/06/15 10:30:52;;;;;;;3.30;1.85;;;;;;;;;;5023377;28;20482;-75
2023/06/15 10:33:37;;;;;;;6.80;1.60;;;;;;;;;;5020483;28;20058;-76
2023/06/15 10:36:13;;;;;;;3.92;1.52;;;;;;;;;;5023443;28;20049;-75
2023/06/15 10:38:43;;;;;;;3.72;1.75;;;;;;;;;;5021332;28;20554;-76
2023/06/15 10:41:10;;;;;;;4.65;2.78;;;;;;;;;;5021931;28;20030;-75
2023/06/15 10:43:36;;;;;;;6.95;2.53;;;;;;;;;;5018075;28;20073;-73
2023/06/15 10:46:02;;;;;;;6.63;1.58;;;;;;;;;;5022369;28;20072;-73
2023/06/15 10:48:29;;;;;;;7.03;1.77;;;;;;;;;;5022156;28;20053;-75
2023/06/15 10:51:02;;;;;;;12.60;1.75;;;;;;;;;;5020887;28;20033;-76
2023/06/15 10:53:29;;;;;;;11.65;1.95;;;;;;;;;;5022569;28;20091;-77
2023/06/15 10:55:57;;;;;;;7.78;1.70;;;;;;;;;;5020710;28;20091;-76
2023/06/15 10:58:26;;;;;;;4.88;1.73;;;;;;;;;;5018065;28;20407;-75
2023/06/15 11:01:10;;;;;;;2.65;1.33;;;;;;;;;;5019317;28;20049;-76
2023/06/15 11:03:41;;;;;;;2.92;1.65;;;;;;;;;;5021330;28;20487;-76
2023/06/15 11:06:07;;;;;;;;;;;;;;;;;;5022363;28;20029;-75
2023/06/15 11:08:43;;;;;;;2.28;1.85;;;;;;;;;;5020622;28;19917;-78
2023/06/15 11:11:11;;;;;;;2.70;1.35;;;;;;;;;;5019424;28;20116;-76
2023/06/15 11:13:56;;;;;;;5.00;1.70;;;31.60;99.90;;;;;;5022140;28;20048;-75
2023/06/15 11:16:27;;;;;;;5.05;2.03;;;31.10;99.90;;;;;;5022665;28;20041;-75
2023/06/15 11:18:57;;;;;;;5.53;3.27;;;;;;;;;;5022258;28;20033;-74
2023/06/15 11:21:30;;;;;;;6.82;1.70;;;;;;;;;;5020390;28;20323;-75
2023/06/15 11:23:59;;;;;;;2.42;1.70;;;;;;;;;;5018128;28;20513;-74
2023/06/15 11:26:29;;;;;;;4.50;1.60;;;;;;;;;;5028181;28;20038;-74
2023/06/15 11:29:01;;;;;;;4.25;1.77;;;30.70;99.90;;;;;;5029276;28;20025;-74
2023/06/15 11:31:30;;;;;;;10.52;2.00;;;;;;;;;;5029835;28;20033;-74
2023/06/15 11:33:57;;;;;;;8.57;2.53;;;;;;;;;;5024201;28;20034;-75
2023/06/15 11:36:23;;;;;;;9.70;1.85;;;;;;;;;;5029021;28;20028;-74
2023/06/15 11:38:50;;;;;;;7.80;2.10;;;;;;;;;;5031314;28;20135;-74
2023/06/15 11:41:16;;;;;;;9.30;1.80;;;;;;;;;;5029806;28;20076;-75
2023/06/15 11:43:50;;;;;;;3.38;1.60;;;;;;;;;;5029055;28;20041;-74
2023/06/15 11:46:17;;;;;;;3.55;1.50;;;;;;;;;;5030420;28;20037;-74
2023/06/15 11:48:44;;;;;;;5.90;1.92;;;;;;;;;;5030859;28;20033;-74
2023/06/15 11:51:12;;;;;;;6.22;1.90;;;31.10;99.90;;;;;;5031905;28;20061;-74
2023/06/15 11:53:39;;;;;;;7.82;1.70;;;;;;;;;;5030584;28;20037;-74
2023/06/15 11:56:12;;;;;;;272.38;14.32;;;31.60;99.90;;;;;;5031070;28;20021;-75
2023/06/15 11:58:38;;;;;;;15.73;2.05;;;;;;;;;;5028509;28;20029;-74
2023/06/15 12:01:05;;;;;;;6.10;1.90;;;;;;;;;;5030173;28;20025;-75
2023/06/15 12:03:31;;;;;;;7.93;2.10;;;;;;;;;;5030445;28;20029;-75
2023/06/15 12:05:58;;;;;;;6.32;1.45;;;;;;;;;;5030576;28;20029;-76
2023/06/15 12:08:25;;;;;;;4.32;1.85;;;;;;;;;;5030369;28;20128;-74
2023/06/15 12:10:52;;;;;;;6.25;2.95;;;;;;;;;;5029601;28;20029;-74
2023/06/15 12:13:18;;;;;;;5.60;1.63;;;;;;;;;;5030009;28;20033;-74
2023/06/15 12:15:47;;;;;;;21.92;2.78;;;;;;;;;;5027212;28;20108;-74
2023/06/15 12:18:13;;;;;;;6.55;1.85;;;;;;;;;;5030594;28;20022;-74
2023/06/15 12:20:40;;;;;;;4.38;1.60;;;;;;;;;;5030545;28;20057;-74
2023/06/15 12:23:06;;;;;;;5.22;1.73;;;;;;;;;;5029689;28;20025;-74
2023/06/15 12:25:42;;;;;;;5.50;1.42;;;;;;;;;;5029853;28;20037;-73
2023/06/15 12:28:15;;;;;;;2.15;1.48;;;;;;;;;;5030328;28;20187;-75
2023/06/15 12:30:42;;;;;;;12.50;1.80;;;;;;;;;;5026588;28;20071;-74
2023/06/15 12:33:23;;;;;;;5.25;1.88;;;;;;;;;;5030477;28;20026;-74
2023/06/15 12:35:51;;;;;;;63.90;4.22;;;31.20;99.90;;;;;;5029649;28;20041;-75
2023/06/15 12:38:17;;;;;;;80.80;5.60;;;;;;;;;;5028474;28;20041;-74
2023/06/15 12:40:44;;;;;;;74.05;3.40;;;;;;;;;;5029649;28;20045;-74
2023/06/15 12:43:10;;;;;;;5.25;1.92;;;;;;;;;;5029524;28;20621;-74
2023/06/15 12:45:36;;;;;;;65.07;4.15;;;;;;;;;;5026980;28;20521;-74
2023/06/15 12:48:04;;;;;;;9.90;2.03;;;;;;;;;;5025186;28;20022;-73
2023/06/15 12:50:30;;;;;;;1.75;1.60;;;;;;;;;;5028444;28;20030;-74
2023/06/15 12:52:57;;;;;;;9.93;1.80;;;;;;;;;;5030341;28;20032;-73
2023/06/15 12:55:25;;;;;;;3.33;1.92;;;;;;;;;;5017393;28;20136;-75
2023/06/15 12:57:51;;;;;;;40.20;3.38;;;;;;;;;;5012724;28;20029;-78
2023/06/15 13:00:19;;;;;;;10.20;1.70;;;;;;;;;;5017099;28;20037;-77
2023/06/15 13:02:45;;;;;;;5.50;1.50;;;;;;;;;;5023052;28;20025;-77
2023/06/15 13:05:12;;;;;;;2.72;1.48;;;;;;;;;;5019796;28;20037;-77
2023/06/15 13:07:38;;;;;;;2.80;1.35;;;;;;;;;;5018318;28;20038;-79
2023/06/15 13:10:05;;;;;;;9.48;2.60;;;;;;;;;;5017213;28;20068;-77
2023/06/15 13:12:32;;;;;;;46.85;3.83;;;;;;;;;;5020269;28;20025;-74
2023/06/15 13:14:58;;;;;;;16.85;2.05;;;;;;;;;;5018392;28;20052;-75
2023/06/15 13:17:24;;;;;;;11.98;2.05;;;;;;;;;;5021335;28;20387;-75
2023/06/15 13:19:50;;;;;;;8.48;1.98;;;;;;;;;;5039758;28;20057;-75
2023/06/15 13:22:16;;;;;;;17.27;2.72;;;;;;;;;;5027552;28;20037;-75
2023/06/15 13:24:42;;;;;;;61.28;3.20;;;;;;;;;;5027931;28;20073;-77
2023/06/15 13:27:09;;;;;;;6.03;1.80;;;;;;;;;;5029115;28;20076;-77
2023/06/15 13:29:36;;;;;;;10.25;1.70;;;;;;;;;;5026704;28;20029;-74
2023/06/15 13:32:03;;;;;;;4.57;1.88;;;;;;;;;;5025954;28;20026;-76
2023/06/15 13:34:30;;;;;;;4.05;2.10;;;;;;;;;;5022344;28;20509;-77
2023/06/15 13:36:56;;;;;;;5.28;2.15;;;;;;;;;;5024408;28;20037;-76
2023/06/15 13:39:22;;;;;;;108.78;6.90;;;;;;;;;;5026169;28;20433;-76
2023/06/15 13:41:50;;;;;;;17.20;2.10;;;;;;;;;;5027502;28;20029;-76
2023/06/15 13:44:16;;;;;;;5.47;1.60;;;;;;;;;;5021696;28;20046;-76
2023/06/15 13:46:42;;;;;;;12.57;1.90;;;;;;;;;;5024991;28;20057;-77
2023/06/15 13:49:08;;;;;;;15.27;1.73;;;;;;;;;;5025541;28;20597;-77
2023/06/15 13:51:36;;;;;;;4.78;1.95;;;;;;;;;;5022480;28;20071;-76
2023/06/15 13:54:02;;;;;;;6.97;1.70;;;;;;;;;;5028790;28;20021;-78
2023/06/15 13:56:28;;;;;;;5.38;1.80;;;;;;;;;;5026079;28;20025;-80
2023/06/15 13:58:55;;;;;;;9.98;1.90;;;;;;;;;;5030931;28;20517;-77
2023/06/15 14:01:24;;;;;;;4.88;1.75;;;;;;;;;;5029461;28;20037;-78
2023/06/15 14:03:51;;;;;;;111.82;7.47;;;;;;;;;;5019510;28;20203;-74
2023/06/15 14:06:17;;;;;;;7.45;1.85;;;;;;;;;;5032717;28;20033;-75
2023/06/15 14:08:44;;;;;;;7.15;1.75;;;;;;;;;;5028470;28;20049;-75
2023/06/15 14:11:10;;;;;;;9.73;2.15;;;;;;;;;;5029323;28;20022;-75
2023/06/15 14:13:36;;;;;;;9.15;1.70;;;;;;;;;;5032591;28;20041;-75
2023/06/15 14:16:02;;;;;;;15.95;3.42;;;;;;;;;;5024812;28;20523;-75
2023/06/15 14:18:28;;;;;;;10.30;2.22;;;;;;;;;;5026166;28;20041;-75
2023/06/15 14:20:54;;;;;;;4.07;1.80;;;;;;;;;;5025237;28;20037;-75
2023/06/15 14:23:21;;;;;;;7.53;2.53;;;;;;;;;;5027147;28;20042;-79
2023/06/15 14:25:48;;;;;;;4.70;2.80;;;;;;;;;;5031444;28;20025;-80
2023/06/15 14:28:14;;;;;;;3.63;1.42;;;;;;;;;;5029744;28;20057;-80
2023/06/15 14:30:40;;;;;;;4.80;1.80;;;;;;;;;;5022317;28;20037;-78